createdAt,value
2024-05-09T00:01:00.066Z,90.23
2024-05-09T00:03:01.974Z,91.34
2024-05-09T00:05:03.845Z,91.89
2024-05-09T00:07:05.748Z,94.72
2024-05-09T00:09:07.566Z,96.59
2024-05-09T00:11:09.339Z,97.72
2024-05-09T00:13:11.480Z,100.00
2024-05-09T00:15:13.340Z,100.00
2024-05-09T00:17:15.174Z,100.00
2024-05-09T00:19:17.138Z,100.00
2024-05-09T00:21:18.964Z,100.00
2024-05-09T00:23:20.724Z,100.00
2024-05-09T00:25:22.436Z,100.00
2024-05-09T00:27:24.331Z,100.00
2024-05-09T00:29:26.307Z,100.00
2024-05-09T00:31:28.103Z,100.00
2024-05-09T00:33:30.143Z,100.00
2024-05-09T00:35:32.242Z,100.00
2024-05-09T00:37:34.060Z,100.00
2024-05-09T00:39:35.986Z,100.00
2024-05-09T00:41:37.756Z,100.00
2024-05-09T00:43:39.949Z,100.00
2024-05-09T00:45:42.366Z,100.00
2024-05-09T00:47:46.149Z,100.00
2024-05-09T00:49:48.117Z,100.00
2024-05-09T00:51:51.248Z,100.00
2024-05-09T00:53:53.267Z,100.00
2024-05-09T00:55:57.446Z,100.00
2024-05-09T00:57:59.308Z,100.00
2024-05-09T01:00:01.456Z,100.00
2024-05-09T01:02:03.451Z,100.00
2024-05-09T01:04:05.545Z,100.00
2024-05-09T01:06:07.351Z,100.00
2024-05-09T01:08:10.480Z,100.00
2024-05-09T01:10:17.417Z,100.00
2024-05-09T01:12:25.632Z,100.00
2024-05-09T01:14:27.451Z,100.00
2024-05-09T01:16:29.510Z,100.00
2024-05-09T01:18:31.367Z,100.00
2024-05-09T01:20:40.963Z,100.00
2024-05-09T01:22:45.633Z,100.00
2024-05-09T01:24:47.328Z,100.00
2024-05-09T01:26:49.105Z,100.00
2024-05-09T01:28:51.082Z,100.00
2024-05-09T01:30:52.813Z,100.00
2024-05-09T01:32:54.728Z,100.00
2024-05-09T01:34:56.655Z,100.00
2024-05-09T01:36:58.394Z,100.00
2024-05-09T01:39:00.128Z,100.00
2024-05-09T01:41:01.996Z,100.00
2024-05-09T01:43:03.913Z,100.00
2024-05-09T01:45:07.163Z,100.00
2024-05-09T01:47:09.562Z,100.00
2024-05-09T01:49:11.410Z,100.00
2024-05-09T01:51:13.328Z,100.00
2024-05-09T01:53:15.437Z,100.00
2024-05-09T01:55:17.295Z,100.00
2024-05-09T01:57:19.088Z,100.00
2024-05-09T01:59:21.100Z,100.00
2024-05-09T02:01:22.951Z,100.00
2024-05-09T02:03:24.914Z,100.00
2024-05-09T02:05:26.930Z,100.00
2024-05-09T02:07:28.700Z,100.00
2024-05-09T02:09:30.404Z,100.00
2024-05-09T02:11:32.755Z,100.00
2024-05-09T02:13:34.632Z,100.00
2024-05-09T02:15:36.600Z,100.00
2024-05-09T02:17:38.552Z,100.00
2024-05-09T02:19:40.499Z,100.00
2024-05-09T02:21:42.238Z,100.00
2024-05-09T02:23:44.015Z,100.00
2024-05-09T02:25:45.835Z,100.00
2024-05-09T02:27:47.564Z,100.00
2024-05-09T02:29:49.375Z,100.00
2024-05-09T02:31:51.284Z,100.00
2024-05-09T02:33:53.250Z,100.00
2024-05-09T02:35:55.101Z,100.00
2024-05-09T02:37:57.895Z,100.00
2024-05-09T02:39:59.688Z,100.00
2024-05-09T02:42:01.444Z,100.00
2024-05-09T02:44:03.241Z,100.00
2024-05-09T02:46:06.695Z,100.00
2024-05-09T02:48:13.296Z,100.00
2024-05-09T02:50:23.023Z,100.00
2024-05-09T02:52:28.492Z,100.00
2024-05-09T02:54:30.309Z,100.00
2024-05-09T02:56:32.045Z,100.00
2024-05-09T02:58:33.794Z,100.00
2024-05-09T03:00:39.797Z,100.00
2024-05-09T03:02:44.075Z,100.00
2024-05-09T03:04:45.997Z,100.00
2024-05-09T03:06:47.780Z,100.00
2024-05-09T03:08:49.491Z,100.00
2024-05-09T03:10:51.259Z,100.00
2024-05-09T03:12:53.072Z,100.00
2024-05-09T03:14:54.839Z,100.00
2024-05-09T03:16:56.608Z,100.00
2024-05-09T03:18:58.618Z,100.00
2024-05-09T03:21:00.431Z,100.00
2024-05-09T03:23:02.400Z,100.00
2024-05-09T03:25:04.546Z,100.00
2024-05-09T03:27:06.496Z,100.00
2024-05-09T03:29:08.274Z,100.00
2024-05-09T03:31:10.539Z,100.00
2024-05-09T03:33:16.189Z,100.00
2024-05-09T03:35:18.095Z,100.00
2024-05-09T03:37:19.822Z,100.00
2024-05-09T03:39:21.566Z,100.00
2024-05-09T03:41:23.359Z,100.00
2024-05-09T03:43:25.191Z,100.00
2024-05-09T03:45:26.914Z,100.00
2024-05-09T03:47:28.811Z,100.00
2024-05-09T03:49:30.937Z,100.00
2024-05-09T03:51:32.938Z,100.00
2024-05-09T03:53:34.780Z,100.00
2024-05-09T03:55:36.700Z,100.00
2024-05-09T03:57:38.400Z,100.00
2024-05-09T03:59:40.171Z,100.00
2024-05-09T04:01:42.042Z,100.00
2024-05-09T04:03:44.050Z,100.00
2024-05-09T04:05:46.195Z,100.00
2024-05-09T04:07:48.098Z,100.00
2024-05-09T04:09:49.819Z,100.00
2024-05-09T04:11:51.696Z,100.00
2024-05-09T04:13:53.492Z,100.00
2024-05-09T04:15:55.274Z,100.00
2024-05-09T04:17:57.264Z,100.00
2024-05-09T04:19:59.392Z,100.00
2024-05-09T04:22:01.126Z,100.00
2024-05-09T04:24:02.848Z,100.00
2024-05-09T04:26:04.998Z,100.00
2024-05-09T04:28:06.923Z,100.00
2024-05-09T04:30:15.315Z,100.00
2024-05-09T04:32:23.329Z,100.00
2024-05-09T04:34:25.320Z,100.00
2024-05-09T04:36:27.059Z,100.00
2024-05-09T04:38:29.028Z,100.00
2024-05-09T04:40:34.444Z,100.00
2024-05-09T04:42:40.865Z,100.00
2024-05-09T04:44:42.591Z,100.00
2024-05-09T04:46:44.353Z,100.00
2024-05-09T04:48:46.224Z,100.00
2024-05-09T04:50:48.102Z,100.00
2024-05-09T04:52:49.909Z,100.00
2024-05-09T04:54:52.675Z,97.38
2024-05-09T04:56:55.220Z,87.95
2024-05-09T04:58:56.973Z,84.88
2024-05-09T05:00:58.773Z,86.82
2024-05-09T05:03:00.670Z,82.56
2024-05-09T05:05:02.797Z,88.57
2024-05-09T05:07:04.846Z,77.91
2024-05-09T05:09:06.653Z,81.71
2024-05-09T05:11:08.470Z,77.02
2024-05-09T05:13:11.776Z,78.23
2024-05-09T05:15:13.757Z,74.66
2024-05-09T05:17:15.527Z,69.36
2024-05-09T05:19:17.836Z,66.08
2024-05-09T05:21:19.868Z,66.02
2024-05-09T05:23:23.255Z,67.45
2024-05-09T05:25:25.152Z,65.73
2024-05-09T05:27:26.845Z,65.33
2024-05-09T05:29:28.698Z,64.42
2024-05-09T05:31:30.506Z,64.87
2024-05-09T05:33:32.716Z,62.97
2024-05-09T05:35:34.948Z,61.07
2024-05-09T05:37:36.805Z,60.61
2024-05-09T05:39:38.696Z,60.76
2024-05-09T05:41:40.527Z,59.01
2024-05-09T05:43:42.296Z,57.67
2024-05-09T05:45:44.838Z,56.00
2024-05-09T05:47:46.811Z,52.95
2024-05-09T05:49:48.624Z,51.28
2024-05-09T05:51:50.465Z,48.95
2024-05-09T05:53:52.186Z,48.31
2024-05-09T05:55:53.917Z,47.49
2024-05-09T05:57:55.922Z,50.32
2024-05-09T05:59:57.654Z,48.50
2024-05-09T06:01:59.387Z,49.86
2024-05-09T06:04:01.445Z,48.14
2024-05-09T06:06:03.622Z,48.75
2024-05-09T06:08:05.977Z,49.19
2024-05-09T06:10:16.957Z,47.89
2024-05-09T06:12:23.086Z,47.17
2024-05-09T06:14:24.968Z,46.82
2024-05-09T06:16:26.888Z,46.54
2024-05-09T06:18:28.733Z,45.62
2024-05-09T06:20:35.958Z,45.74
2024-05-09T06:22:39.980Z,45.82
2024-05-09T06:24:41.710Z,46.23
2024-05-09T06:26:44.198Z,45.57
2024-05-09T06:28:46.201Z,45.09
2024-05-09T06:30:47.996Z,43.80
2024-05-09T06:32:49.844Z,42.83
2024-05-09T06:34:51.730Z,43.32
2024-05-09T06:36:53.457Z,42.99
2024-05-09T06:38:55.194Z,45.03
2024-05-09T06:40:57.187Z,43.08
2024-05-09T06:42:58.956Z,41.99
2024-05-09T06:45:00.711Z,39.98
2024-05-09T06:47:02.540Z,40.58
2024-05-09T06:49:04.644Z,41.37
2024-05-09T06:51:06.610Z,39.84
2024-05-09T06:53:08.756Z,38.59
2024-05-09T06:55:10.577Z,37.98
2024-05-09T06:57:12.323Z,37.20
2024-05-09T06:59:14.354Z,38.14
2024-05-09T07:01:16.162Z,36.41
2024-05-09T07:03:19.277Z,36.16
2024-05-09T07:05:21.531Z,33.99
2024-05-09T07:07:23.375Z,34.55
2024-05-09T07:09:25.115Z,33.64
2024-05-09T07:11:27.051Z,32.98
2024-05-09T07:13:28.847Z,34.07
2024-05-09T07:15:30.989Z,34.93
2024-05-09T07:17:32.976Z,33.79
2024-05-09T07:19:34.924Z,32.95
2024-05-09T07:21:36.780Z,32.89
2024-05-09T07:23:38.712Z,32.45
2024-05-09T07:25:41.668Z,31.63
2024-05-09T07:27:43.481Z,30.73
2024-05-09T07:29:45.215Z,30.49
2024-05-09T07:31:47.016Z,30.00
2024-05-09T07:33:48.985Z,30.06
2024-05-09T07:35:51.014Z,30.14
2024-05-09T07:37:52.759Z,30.76
2024-05-09T07:39:54.456Z,29.51
2024-05-09T07:41:56.177Z,29.13
2024-05-09T07:43:58.074Z,29.32
2024-05-09T07:46:28.311Z,29.48
2024-05-09T07:53:33.145Z,29.52
2024-05-09T07:54:55.802Z,30.22
2024-05-09T07:56:57.839Z,29.48
2024-05-09T07:58:59.616Z,29.86
2024-05-09T08:01:01.446Z,30.12
2024-05-09T08:03:03.308Z,32.33
2024-05-09T08:05:05.435Z,30.65
2024-05-09T08:07:07.425Z,31.24
2024-05-09T08:09:13.879Z,31.30
2024-05-09T08:11:21.127Z,29.57
2024-05-09T08:13:23.279Z,30.09
2024-05-09T08:15:25.040Z,30.01
2024-05-09T08:17:26.910Z,31.80
2024-05-09T08:19:28.689Z,31.95
2024-05-09T08:21:30.488Z,33.46
2024-05-09T08:23:32.259Z,34.13
2024-05-09T08:25:33.976Z,33.99
2024-05-09T08:27:35.754Z,34.00
2024-05-09T08:29:37.513Z,32.47
2024-05-09T08:31:39.416Z,32.40
2024-05-09T08:33:46.538Z,32.18
2024-05-09T08:35:48.453Z,34.13
2024-05-09T08:37:50.202Z,33.51
2024-05-09T08:39:52.257Z,33.70
2024-05-09T08:41:54.015Z,33.40
2024-05-09T08:43:55.758Z,33.26
2024-05-09T08:45:59.337Z,34.40
2024-05-09T08:48:02.484Z,33.73
2024-05-09T08:50:13.551Z,33.62
2024-05-09T08:52:18.209Z,33.44
2024-05-09T08:54:19.956Z,32.57
2024-05-09T08:56:26.667Z,32.78
2024-05-09T08:58:30.522Z,33.21
2024-05-09T09:00:36.978Z,34.02
2024-05-09T09:02:40.044Z,34.88
2024-05-09T09:04:48.210Z,33.92
2024-05-09T09:06:53.167Z,35.91
2024-05-09T09:08:55.876Z,35.34
2024-05-09T09:11:00.950Z,35.64
2024-05-09T09:13:03.453Z,33.97
2024-05-09T09:15:05.538Z,32.47
2024-05-09T09:17:14.816Z,33.73
2024-05-09T09:19:16.783Z,33.41
2024-05-09T09:21:18.741Z,32.41
2024-05-09T09:23:20.531Z,33.29
2024-05-09T09:25:23.010Z,32.93
2024-05-09T09:27:24.748Z,31.74
2024-05-09T09:29:26.788Z,32.23
2024-05-09T09:31:29.775Z,31.99
2024-05-09T09:33:32.068Z,33.27
2024-05-09T09:35:34.893Z,32.32
2024-05-09T09:37:38.146Z,33.10
2024-05-09T09:39:40.267Z,34.24
2024-05-09T09:41:46.530Z,33.76
2024-05-09T09:43:48.829Z,34.08
2024-05-09T09:45:53.033Z,33.20
2024-05-09T09:47:56.935Z,33.54
2024-05-09T09:49:59.756Z,34.12
2024-05-09T09:52:02.161Z,34.81
2024-05-09T09:54:05.949Z,35.03
2024-05-09T09:56:10.193Z,35.25
2024-05-09T09:58:14.700Z,34.92
2024-05-09T10:00:23.992Z,35.39
2024-05-09T10:02:29.525Z,35.36
2024-05-09T10:04:31.775Z,35.10
2024-05-09T10:06:39.013Z,35.72
2024-05-09T10:08:41.691Z,34.27
2024-05-09T10:10:47.042Z,35.61
2024-05-09T10:12:57.595Z,34.99
2024-05-09T10:14:59.444Z,35.67
2024-05-09T10:17:05.235Z,35.51
2024-05-09T10:19:07.110Z,35.16
2024-05-09T10:21:19.398Z,34.82
2024-05-09T10:23:23.941Z,34.76
2024-05-09T10:25:25.706Z,33.84
2024-05-09T10:27:28.943Z,34.21
2024-05-09T10:29:30.698Z,33.69
2024-05-09T10:31:32.554Z,34.33
2024-05-09T10:33:53.054Z,33.54
2024-05-09T10:35:55.101Z,33.60
2024-05-09T10:37:57.621Z,33.76
2024-05-09T10:40:00.556Z,33.98
2024-05-09T10:42:03.608Z,35.34
2024-05-09T10:44:15.736Z,35.05
2024-05-09T10:46:17.839Z,36.33
2024-05-09T10:48:19.729Z,36.04
2024-05-09T10:50:28.162Z,36.88
2024-05-09T10:52:31.074Z,35.25
2024-05-09T10:54:36.913Z,34.65
2024-05-09T10:56:38.685Z,35.18
2024-05-09T10:58:40.814Z,34.66
2024-05-09T11:00:42.604Z,35.67
2024-05-09T11:02:44.526Z,35.79
2024-05-09T11:04:46.587Z,34.65
2024-05-09T11:06:48.646Z,35.67
2024-05-09T11:08:50.921Z,34.61
2024-05-09T11:10:53.869Z,34.07
2024-05-09T11:12:55.754Z,33.81
2024-05-09T11:14:57.490Z,33.97
2024-05-09T11:17:07.538Z,33.97
2024-05-09T11:19:13.464Z,33.59
2024-05-09T11:21:15.303Z,33.75
2024-05-09T11:23:17.687Z,32.55
2024-05-09T11:25:19.589Z,33.87
2024-05-09T11:27:21.883Z,34.78
2024-05-09T11:29:36.059Z,35.82
2024-05-09T11:31:47.829Z,35.47
2024-05-09T11:33:49.750Z,37.60
2024-05-09T11:35:51.605Z,36.60
2024-05-09T11:37:53.425Z,36.48
2024-05-09T11:39:55.245Z,36.87
2024-05-09T11:41:57.804Z,34.80
2024-05-09T11:43:59.503Z,34.48
2024-05-09T11:46:01.395Z,35.42
2024-05-09T11:48:04.140Z,33.28
2024-05-09T11:50:08.077Z,34.11
2024-05-09T11:52:11.995Z,36.40
2024-05-09T11:54:15.752Z,35.80
2024-05-09T11:56:17.615Z,34.55
2024-05-09T11:58:20.630Z,33.65
2024-05-09T12:00:29.714Z,33.41
2024-05-09T12:02:38.285Z,33.21
2024-05-09T12:04:40.238Z,34.51
2024-05-09T12:06:42.225Z,35.14
2024-05-09T12:08:44.082Z,34.56
2024-05-09T12:10:46.258Z,33.91
2024-05-09T12:12:48.307Z,34.90
2024-05-09T12:14:50.039Z,37.56
2024-05-09T12:16:51.906Z,36.18
2024-05-09T12:18:53.895Z,35.63
2024-05-09T12:20:55.852Z,35.84
2024-05-09T12:22:57.564Z,36.69
2024-05-09T12:24:59.328Z,35.31
2024-05-09T12:27:01.123Z,34.38
2024-05-09T12:29:02.879Z,33.73
2024-05-09T12:31:04.969Z,34.55
2024-05-09T12:33:08.607Z,34.93
2024-05-09T12:35:10.790Z,34.93
2024-05-09T12:37:12.705Z,35.80
2024-05-09T12:39:14.614Z,35.13
2024-05-09T12:41:16.320Z,34.62
2024-05-09T12:43:18.385Z,34.60
2024-05-09T12:45:20.153Z,36.14
2024-05-09T12:47:22.100Z,34.04
2024-05-09T12:49:24.174Z,33.95
2024-05-09T12:51:26.214Z,34.56
2024-05-09T12:53:27.959Z,34.05
2024-05-09T12:55:34.028Z,34.57
2024-05-09T12:57:42.500Z,35.48
2024-05-09T12:59:44.345Z,34.87
2024-05-09T13:01:46.404Z,33.98
2024-05-09T13:03:48.356Z,34.91
2024-05-09T13:05:51.419Z,34.35
2024-05-09T13:07:53.552Z,36.31
2024-05-09T13:09:55.318Z,35.31
2024-05-09T13:11:57.103Z,37.34
2024-05-09T13:13:59.105Z,35.17
2024-05-09T13:16:00.972Z,35.89
2024-05-09T13:18:04.080Z,35.79
2024-05-09T13:20:09.290Z,34.32
2024-05-09T13:22:13.734Z,34.34
2024-05-09T13:24:15.573Z,34.69
2024-05-09T13:26:17.423Z,34.71
2024-05-09T13:28:19.351Z,34.51
2024-05-09T13:30:29.262Z,34.51
2024-05-09T13:32:39.740Z,35.09
2024-05-09T13:34:41.585Z,34.57
2024-05-09T13:36:43.461Z,35.76
2024-05-09T13:38:45.540Z,35.95
2024-05-09T13:40:47.818Z,35.37
2024-05-09T13:42:49.934Z,35.42
2024-05-09T13:44:51.666Z,35.93
2024-05-09T13:46:53.674Z,34.42
2024-05-09T13:48:55.583Z,33.96
2024-05-09T13:50:57.531Z,34.33
2024-05-09T13:52:59.252Z,35.13
2024-05-09T13:55:00.989Z,34.95
2024-05-09T13:57:02.892Z,36.28
2024-05-09T13:59:04.926Z,34.54
2024-05-09T14:01:06.729Z,35.04
2024-05-09T14:03:08.643Z,34.89
2024-05-09T14:05:10.817Z,34.64
2024-05-09T14:07:12.964Z,34.27
2024-05-09T14:09:15.128Z,34.47
2024-05-09T14:11:16.890Z,34.24
2024-05-09T14:13:19.770Z,33.39
2024-05-09T14:15:21.746Z,33.32
2024-05-09T14:17:23.660Z,33.79
2024-05-09T14:19:25.462Z,33.38
2024-05-09T14:21:27.206Z,33.34
2024-05-09T14:23:29.130Z,34.63
2024-05-09T14:25:31.266Z,33.74
2024-05-09T14:27:33.070Z,35.04
2024-05-09T14:29:35.093Z,34.24
2024-05-09T14:31:39.677Z,34.87
2024-05-09T14:33:41.760Z,34.19
2024-05-09T14:35:43.696Z,34.55
2024-05-09T14:37:45.471Z,34.66
2024-05-09T14:39:47.239Z,34.11
2024-05-09T14:41:48.992Z,34.21
2024-05-09T14:43:50.693Z,34.20
2024-05-09T14:45:52.594Z,35.54
2024-05-09T14:47:54.587Z,35.59
2024-05-09T14:49:56.441Z,35.71
2024-05-09T14:51:58.390Z,36.21
2024-05-09T14:54:00.228Z,36.02
2024-05-09T14:56:02.010Z,36.33
2024-05-09T14:58:03.970Z,35.17
2024-05-09T15:00:09.124Z,35.08
2024-05-09T15:02:16.050Z,35.65
2024-05-09T15:04:17.990Z,36.16
2024-05-09T15:06:19.951Z,35.89
2024-05-09T15:08:21.804Z,35.23
2024-05-09T15:10:31.169Z,36.08
2024-05-09T15:12:36.649Z,37.00
2024-05-09T15:14:38.380Z,36.62
2024-05-09T15:16:40.116Z,35.54
2024-05-09T15:18:43.908Z,35.47
2024-05-09T15:20:46.118Z,35.85
2024-05-09T15:22:47.970Z,35.57
2024-05-09T15:24:49.820Z,35.98
2024-05-09T15:26:51.579Z,35.00
2024-05-09T15:28:53.291Z,35.20
2024-05-09T15:30:55.017Z,34.88
2024-05-09T15:32:56.828Z,35.39
2024-05-09T15:34:58.625Z,35.03
2024-05-09T15:37:01.308Z,35.61
2024-05-09T15:39:03.275Z,36.02
2024-05-09T15:41:05.547Z,35.83
2024-05-09T15:43:08.511Z,35.73
2024-05-09T15:45:11.367Z,35.44
2024-05-09T15:47:13.078Z,35.83
2024-05-09T15:49:14.966Z,35.62
2024-05-09T15:51:16.812Z,37.07
2024-05-09T15:53:18.543Z,36.79
2024-05-09T15:55:20.440Z,36.56
2024-05-09T15:57:22.462Z,37.43
2024-05-09T15:59:24.315Z,36.73
2024-05-09T16:01:26.155Z,37.15
2024-05-09T16:03:28.119Z,38.05
2024-05-09T16:05:29.998Z,37.60
2024-05-09T16:07:31.938Z,38.32
2024-05-09T16:09:33.696Z,39.35
2024-05-09T16:11:35.511Z,38.56
2024-05-09T16:13:37.265Z,37.73
2024-05-09T16:15:39.076Z,38.89
2024-05-09T16:17:40.968Z,37.30
2024-05-09T16:19:42.756Z,37.47
2024-05-09T16:21:44.519Z,37.61
2024-05-09T16:23:46.253Z,37.75
2024-05-09T16:25:48.539Z,38.45
2024-05-09T16:27:51.477Z,37.71
2024-05-09T16:29:53.211Z,37.89
2024-05-09T16:31:54.996Z,37.79
2024-05-09T16:33:56.980Z,37.93
2024-05-09T16:35:58.897Z,37.94
2024-05-09T16:38:04.108Z,37.86
2024-05-09T16:40:09.929Z,38.26
2024-05-09T16:42:17.006Z,38.53
2024-05-09T16:44:18.840Z,37.68
2024-05-09T16:46:20.948Z,38.20
2024-05-09T16:48:23.135Z,38.44
2024-05-09T16:50:29.536Z,37.52
2024-05-09T16:52:34.695Z,38.24
2024-05-09T16:54:36.609Z,38.91
2024-05-09T16:56:38.413Z,38.03
2024-05-09T16:58:40.492Z,38.02
2024-05-09T17:00:43.903Z,37.97
2024-05-09T17:02:46.306Z,38.93
2024-05-09T17:04:48.194Z,38.44
2024-05-09T17:06:50.027Z,38.32
2024-05-09T17:08:52.308Z,38.60
2024-05-09T17:10:54.946Z,39.05
2024-05-09T17:12:56.853Z,38.39
2024-05-09T17:14:58.585Z,37.97
2024-05-09T17:17:00.581Z,38.21
2024-05-09T17:19:02.538Z,38.47
2024-05-09T17:21:04.433Z,38.81
2024-05-09T17:23:06.580Z,38.77
2024-05-09T17:25:08.590Z,40.17
2024-05-09T17:27:10.644Z,39.05
2024-05-09T17:29:12.639Z,39.01
2024-05-09T17:31:14.520Z,39.27
2024-05-09T17:33:16.444Z,38.66
2024-05-09T17:35:18.242Z,39.04
2024-05-09T17:37:20.435Z,38.96
2024-05-09T17:39:22.248Z,39.54
2024-05-09T17:41:23.967Z,40.57
2024-05-09T17:43:25.967Z,42.43
2024-05-09T17:45:27.743Z,44.91
2024-05-09T17:47:29.631Z,45.62
2024-05-09T17:49:31.557Z,46.60
2024-05-09T17:51:33.614Z,47.46
2024-05-09T17:53:35.358Z,48.07
2024-05-09T17:55:37.394Z,48.39
2024-05-09T17:57:39.249Z,50.09
2024-05-09T17:59:40.982Z,51.17
2024-05-09T18:01:42.964Z,52.39
2024-05-09T18:03:44.960Z,52.93
2024-05-09T18:05:46.961Z,54.21
2024-05-09T18:07:48.992Z,56.61
2024-05-09T18:09:50.767Z,56.14
2024-05-09T18:11:52.531Z,56.70
2024-05-09T18:13:54.330Z,56.64
2024-05-09T18:15:56.149Z,58.63
2024-05-09T18:17:58.418Z,59.91
2024-05-09T18:20:00.490Z,59.95
2024-05-09T18:22:02.352Z,61.33
2024-05-09T18:24:04.220Z,63.09
2024-05-09T18:26:06.203Z,61.96
2024-05-09T18:28:08.589Z,62.81
2024-05-09T18:30:17.322Z,64.25
2024-05-09T18:32:25.491Z,64.64
2024-05-09T18:34:27.336Z,66.14
2024-05-09T18:36:29.177Z,65.40
2024-05-09T18:38:31.017Z,67.02
2024-05-09T18:40:36.178Z,67.09
2024-05-09T18:42:40.146Z,65.85
2024-05-09T18:44:42.165Z,67.02
2024-05-09T18:46:43.899Z,67.07
2024-05-09T18:48:45.712Z,66.97
2024-05-09T18:50:49.078Z,67.31
2024-05-09T18:52:51.064Z,67.26
2024-05-09T18:54:52.820Z,69.05
2024-05-09T18:56:54.798Z,71.75
2024-05-09T18:58:56.505Z,72.87
2024-05-09T19:01:00.828Z,73.26
2024-05-09T19:03:03.875Z,73.50
2024-05-09T19:05:05.878Z,74.35
2024-05-09T19:07:07.701Z,73.34
2024-05-09T19:09:09.530Z,74.32
2024-05-09T19:11:11.403Z,73.98
2024-05-09T19:13:14.373Z,73.64
2024-05-09T19:15:16.936Z,75.42
2024-05-09T19:17:18.706Z,76.71
2024-05-09T19:19:20.565Z,76.90
2024-05-09T19:21:22.727Z,75.84
2024-05-09T19:23:24.456Z,77.60
2024-05-09T19:25:26.224Z,77.58
2024-05-09T19:27:28.228Z,77.56
2024-05-09T19:29:30.382Z,79.38
2024-05-09T19:31:32.132Z,78.51
2024-05-09T19:33:34.075Z,78.17
2024-05-09T19:35:35.877Z,79.00
2024-05-09T19:37:37.750Z,78.50
2024-05-09T19:39:39.510Z,80.40
2024-05-09T19:41:41.468Z,83.07
2024-05-09T19:43:43.663Z,84.36
2024-05-09T19:45:45.726Z,84.99
2024-05-09T19:47:47.667Z,84.97
2024-05-09T19:49:49.432Z,85.94
2024-05-09T19:51:51.311Z,84.54
2024-05-09T19:53:53.070Z,83.96
2024-05-09T19:55:55.045Z,85.34
2024-05-09T19:57:57.239Z,85.14
2024-05-09T19:59:59.555Z,85.14
2024-05-09T20:02:01.474Z,85.58
2024-05-09T20:04:03.710Z,87.30
2024-05-09T20:06:05.714Z,87.28
2024-05-09T20:08:07.873Z,87.68
2024-05-09T20:10:16.628Z,88.23
2024-05-09T20:14:26.797Z,88.62
2024-05-09T20:16:28.506Z,87.63
2024-05-09T20:18:30.363Z,87.64
2024-05-09T20:20:37.778Z,87.30
2024-05-09T20:22:43.240Z,90.02
2024-05-09T20:24:45.070Z,93.13
2024-05-09T20:26:46.795Z,92.30
2024-05-09T20:28:48.508Z,93.73
2024-05-09T20:30:50.483Z,94.31
2024-05-09T20:32:52.389Z,93.53
2024-05-09T20:34:54.127Z,94.25
2024-05-09T20:36:55.906Z,95.68
2024-05-09T20:38:57.636Z,95.21
2024-05-09T20:40:59.446Z,97.54
2024-05-09T20:43:01.256Z,97.36
2024-05-09T20:45:03.061Z,99.52
2024-05-09T20:47:04.781Z,98.85
2024-05-09T20:49:06.565Z,97.33
2024-05-09T20:51:09.929Z,97.80
2024-05-09T20:53:13.855Z,97.41
2024-05-09T20:55:16.711Z,100.00
2024-05-09T20:57:18.535Z,100.00
2024-05-09T20:59:20.388Z,100.00
2024-05-09T21:01:22.130Z,100.00
2024-05-09T21:03:25.262Z,100.00
2024-05-09T21:05:27.197Z,100.00
2024-05-09T21:07:29.059Z,100.00
2024-05-09T21:09:30.769Z,100.00
2024-05-09T21:11:32.564Z,100.00
2024-05-09T21:13:34.424Z,100.00
2024-05-09T21:15:36.527Z,100.00
2024-05-09T21:17:38.432Z,100.00
2024-05-09T21:19:40.201Z,100.00
2024-05-09T21:21:42.575Z,100.00
2024-05-09T21:23:44.364Z,100.00
2024-05-09T21:25:46.091Z,100.00
2024-05-09T21:27:47.821Z,100.00
2024-05-09T21:29:49.603Z,100.00
2024-05-09T21:31:51.310Z,100.00
2024-05-09T21:33:53.117Z,100.00
2024-05-09T21:35:55.071Z,100.00
2024-05-09T21:37:56.842Z,100.00
2024-05-09T21:39:58.688Z,100.00
2024-05-09T21:42:00.682Z,100.00
2024-05-09T21:44:02.409Z,100.00
2024-05-09T21:46:05.000Z,100.00
2024-05-09T21:48:07.566Z,100.00
2024-05-09T21:50:12.563Z,100.00
2024-05-09T21:52:20.092Z,100.00
2024-05-09T21:54:21.827Z,100.00
2024-05-09T21:56:23.662Z,100.00
2024-05-09T21:58:25.610Z,100.00
2024-05-09T22:00:35.817Z,100.00
2024-05-09T22:02:43.309Z,100.00
2024-05-09T22:04:45.113Z,100.00
2024-05-09T22:06:46.951Z,100.00
2024-05-09T22:08:48.687Z,100.00
2024-05-09T22:10:50.704Z,100.00
2024-05-09T22:12:52.566Z,100.00
2024-05-09T22:14:54.309Z,100.00
2024-05-09T22:16:56.036Z,100.00
2024-05-09T22:18:58.097Z,100.00
2024-05-09T22:20:59.894Z,100.00
2024-05-09T22:23:01.606Z,100.00
2024-05-09T22:25:03.638Z,100.00
2024-05-09T22:27:05.482Z,100.00
2024-05-09T22:29:07.200Z,100.00
2024-05-09T22:31:09.449Z,100.00
2024-05-09T22:33:12.330Z,100.00
2024-05-09T22:35:14.548Z,100.00
2024-05-09T22:37:16.772Z,100.00
2024-05-09T22:39:18.657Z,100.00
2024-05-09T22:41:20.375Z,100.00
2024-05-09T22:43:24.260Z,100.00
2024-05-09T22:45:27.010Z,100.00
2024-05-09T22:47:28.777Z,100.00
2024-05-09T22:49:30.688Z,100.00
2024-05-09T22:51:33.243Z,100.00
2024-05-09T22:53:35.201Z,100.00
2024-05-09T22:55:36.997Z,100.00
2024-05-09T22:57:38.804Z,100.00
2024-05-09T22:59:40.652Z,100.00
2024-05-09T23:01:42.446Z,100.00
2024-05-09T23:03:44.276Z,100.00
2024-05-09T23:05:46.092Z,100.00
2024-05-09T23:07:47.835Z,100.00
2024-05-09T23:09:49.605Z,100.00
2024-05-09T23:11:51.555Z,100.00
2024-05-09T23:13:53.393Z,100.00
2024-05-09T23:15:55.185Z,100.00
2024-05-09T23:17:57.331Z,100.00
2024-05-09T23:19:59.518Z,100.00
2024-05-09T23:22:01.531Z,100.00
2024-05-09T23:24:03.433Z,100.00
2024-05-09T23:26:05.283Z,100.00
2024-05-09T23:28:07.512Z,100.00
2024-05-09T23:30:12.448Z,100.00
2024-05-09T23:32:17.021Z,100.00
2024-05-09T23:34:18.918Z,100.00
2024-05-09T23:36:20.847Z,100.00
2024-05-09T23:38:23.958Z,100.00
2024-05-09T23:40:36.890Z,100.00
2024-05-09T23:42:41.665Z,100.00
2024-05-09T23:44:43.403Z,100.00
2024-05-09T23:46:45.285Z,100.00
2024-05-09T23:48:47.218Z,100.00
2024-05-09T23:50:48.957Z,100.00
2024-05-09T23:52:50.827Z,100.00
2024-05-09T23:54:52.578Z,100.00
2024-05-09T23:56:54.370Z,100.00
2024-05-09T23:58:56.230Z,100.00
